Merry Hill, North Carolina
Current Conditions -  °F | °C
As of 7:35 PM on Monday 24 Nov 2014 (Local Time) from KASJ Reporting Station
Overcast Overcast  
Wind Chill: 66°   Ceiling: 9000
Heat Index: 66°   Visibility: 10mi
Dew Point: 64°   Wind: 6mph
Humidity: 92%   Direction: 200°SSW
Pressure: 29.88"   Gusts: NA
Location:  36.2°N, 77.06°W
Report Text: KASJ 250035Z AUTO 20005KT 10SM OVC090 19/18 A2988 RMK AO2 T01900176
Loading
Personal Weather Stations






























Interactive Weather Map New forecast layout! Learn more

10-Day Weather Forecast

Advertisements
Track Severe Weather on mobile